Terminal Aerodrome Forecast
Issued by NWS

Home | Current Version | Previous Version | Text Only | Print | Product List | Glossary On
Versions: 1 2 3 4 5 6 7 8 9 10 11 12 13
000
FTUS45 KVEF 201100
TAFVGT
TAF
KVGT 201139Z 2012/2112 VRB04KT P6SM BKN110
     FM201800 12007KT P6SM BKN100
     FM210000 12007KT P6SM VCSH SCT060 BKN100 PROB30 2100/2104 -TSRA
      BKN060CB
     FM210600 34005KT P6SM VCSH SCT060 BKN080 PROB30 2106/2112 -SHRA
      BKN050=

USA.gov is the U.S. government's official web portal to all federal, state and local government web resources and services.